Time;durP1;ratioP1;P1;durP2;ratioP2;P2;SDS_P1;SDS_P2;PMS_P1;PMS_P2;Temp;Humidity;BMP_temperature;BMP_pressure;BME280_temperature;BME280_humidity;BME280_pressure;Samples;Min_cycle;Max_cycle;Signal;HPM_P1;HPM_P2
2023/01/25 00:01:26;;;;;;;10.40;2.47;;;;;;;;;;4852727;29;20080;-63
2023/01/25 00:04:21;;;;;;;6.10;2.00;;;;;;;;;;4820346;29;20452;-64
2023/01/25 00:06:55;;;;;;;14.73;1.98;;;;;;;;;;4819901;29;20054;-64
2023/01/25 00:09:29;;;;;;;5.97;2.25;;;;;;;;;;4837163;29;20059;-63
2023/01/25 00:12:08;;;;;;;5.25;1.73;;;;;;;;;;4797720;29;20062;-63
2023/01/25 00:15:01;;;;;;;8.55;2.15;;;;;;;;;;4801166;29;20065;-64
2023/01/25 00:18:13;;;;;;;4.47;1.88;;;;;;;;;;4783182;29;20047;-63
2023/01/25 00:20:49;;;;;;;7.32;2.00;;;;;;;;;;4784689;29;20059;-63
2023/01/25 00:23:25;;;;;;;10.18;1.95;;;;;;;;;;4822500;29;20063;-63
2023/01/25 00:25:59;;;;;;;8.70;2.30;;;;;;;;;;4857096;29;20054;-63
2023/01/25 00:28:35;;;;;;;7.22;2.22;;;;;;;;;;4874547;29;20065;-63
2023/01/25 00:31:17;;;;;;;6.10;2.17;;;;;;;;;;4873010;29;20072;-63
2023/01/25 00:34:28;;;;;;;16.38;2.63;;;;;;;;;;4837772;29;20054;-63
2023/01/25 00:37:35;;;;;;;8.50;2.28;;;;;;;;;;4821949;29;20054;-64
2023/01/25 00:40:12;;;;;;;5.60;2.13;;;;;;;;;;4823181;29;20073;-63
2023/01/25 00:42:59;;;;;;;7.10;2.40;;;;;;;;;;4792526;29;20049;-64
2023/01/25 00:45:35;;;;;;;6.65;1.83;;;;;;;;;;4837347;29;20065;-63
2023/01/25 00:48:09;;;;;;;9.20;3.10;;;;;;;;;;4792759;29;20435;-63
2023/01/25 00:50:46;;;;;;;8.60;2.25;;;;;;;;;;4791869;29;20048;-63
2023/01/25 00:53:44;;;;;;;8.85;2.63;;;;;;;;;;4831675;29;20061;-63
2023/01/25 00:56:21;;;;;;;6.43;2.60;;;;;;;;;;4808301;29;20373;-63
2023/01/25 00:59:20;;;;;;;5.82;2.88;;;;;;;;;;4818861;29;20057;-63
2023/01/25 01:01:56;;;;;;;9.93;2.35;;;;;;;;;;4779428;29;20063;-64
2023/01/25 01:04:31;;;;;;;8.30;2.95;;;;;;;;;;4794402;29;20213;-64
2023/01/25 01:07:06;;;;;;;8.68;2.67;;;;;;;;;;4800533;29;20074;-65
2023/01/25 01:10:03;;;;;;;;;;;;;;;;;;4812412;29;20443;-63
2023/01/25 01:12:37;;;;;;;8.98;3.05;;;;;;;;;;4744675;29;19926;-64
2023/01/25 01:15:35;;;;;;;9.13;3.20;;;;;;;;;;4795906;29;20397;-64
2023/01/25 01:18:27;;;;;;;7.05;2.40;;;;;;;;;;4797137;29;20062;-63
2023/01/25 01:21:04;;;;;;;10.35;2.35;;;;;;;;;;4818783;29;20593;-63
2023/01/25 01:23:39;;;;;;;;;;;;;;;;;;4792321;29;20070;-63
2023/01/25 01:26:21;;;;;;;8.23;2.70;;;;;;;;;;4811739;29;20375;-64
2023/01/25 01:28:57;;;;;;;10.00;2.70;;;;;;;;;;4837269;29;20066;-63
2023/01/25 01:31:43;;;;;;;8.52;2.63;;;;;;;;;;4840192;29;20527;-64
2023/01/25 01:34:25;;;;;;;4.85;2.30;;;;;;;;;;4823147;29;20050;-63
2023/01/25 01:37:00;;;;;;;11.93;3.53;;;;;;;;;;4837927;29;20407;-64
2023/01/25 01:40:15;;;;;;;7.47;2.60;;;;;;;;;;4853066;29;20054;-63
2023/01/25 01:43:21;;;;;;;10.02;2.72;;;;;;;;;;4803671;29;20587;-63
2023/01/25 01:46:10;;;;;;;12.73;2.90;;;;;;;;;;4804109;29;20456;-63
2023/01/25 01:49:05;;;;;;;6.70;2.70;;;;;;;;;;4755885;30;20068;-64
2023/01/25 01:51:44;;;;;;;6.65;2.80;;;;;;;;;;4759154;30;20536;-64
2023/01/25 01:54:35;;;;;;;;;;;;;;;;;;4757311;30;20659;-63
2023/01/25 01:57:37;;;;;;;6.95;2.70;;;;;;;;;;4768497;30;19925;-63
2023/01/25 02:00:17;;;;;;;8.50;3.00;;;;;;;;;;4750068;30;20060;-64
2023/01/25 02:02:54;;;;;;;8.77;2.88;;;;;;;;;;4785609;30;20059;-63
2023/01/25 02:06:00;;;;;;;8.18;3.03;;;;;;;;;;4741031;30;20060;-64
2023/01/25 02:08:39;;;;;;;8.55;3.08;;;;;;;;;;4767754;30;20055;-63
2023/01/25 02:11:14;;;;;;;9.07;2.85;;;;;;;;;;4768595;30;20063;-63
2023/01/25 02:14:08;;;;;;;12.77;2.72;;;;;;;;;;4794260;29;20055;-63
2023/01/25 02:16:54;;;;;;;9.50;3.50;;;;;;;;;;4794470;29;20418;-63
2023/01/25 02:20:01;;;;;;;8.25;3.00;;;;;;;;;;4781408;30;20059;-65
2023/01/25 02:22:45;;;;;;;10.45;3.00;;;;;;;;;;4821475;29;20059;-63
2023/01/25 02:25:20;;;;;;;8.95;2.60;;;;;;;;;;4821677;29;20062;-63
2023/01/25 02:28:11;;;;;;;9.85;2.83;;;;;;;;;;4783001;29;20059;-63
2023/01/25 02:31:10;;;;;;;8.23;2.60;;;;;;;;;;4843568;29;20063;-64
2023/01/25 02:33:44;;;;;;;9.07;2.70;;;;;;;;;;4831334;29;20073;-65
2023/01/25 02:36:26;;;;;;;6.93;2.78;;;;;;;;;;4806243;29;20064;-65
2023/01/25 02:39:22;;;;;;;8.63;2.65;;;;;;;;;;4797585;29;20054;-63
2023/01/25 02:41:57;;;;;;;10.70;2.95;;;;;;;;;;4826319;29;20054;-63
2023/01/25 02:44:33;;;;;;;13.05;2.90;;;;;;;;;;4828922;29;20185;-64
2023/01/25 02:47:27;;;;;;;8.13;3.10;;;;;;;;;;4840964;29;20068;-63
2023/01/25 02:50:00;;;;;;;8.05;2.58;;;;;;;;;;4838089;29;20054;-65
2023/01/25 02:52:53;;;;;;;12.95;2.83;;;;;;;;;;4838412;29;20061;-63
2023/01/25 02:55:45;;;;;;;5.97;2.45;;;;;;;;;;4838145;29;20650;-63
2023/01/25 02:58:39;;;;;;;9.38;2.90;;;;;;;;;;4819884;29;20509;-63
2023/01/25 03:01:14;;;;;;;5.55;2.50;;;;;;;;;;4849546;29;20073;-63
2023/01/25 03:03:52;;;;;;;12.27;2.95;;;;;;;;;;4805792;29;20478;-64
2023/01/25 03:06:24;;;;;;;9.50;2.85;;;;;;;;;;4834219;29;20062;-64
2023/01/25 03:08:58;;;;;;;11.02;2.63;;;;;;;;;;4823027;29;20061;-63
2023/01/25 03:11:54;;;;;;;11.93;2.67;;;;;;;;;;4787893;29;20070;-63
2023/01/25 03:14:29;;;;;;;7.38;2.25;;;;;;;;;;4847469;29;20057;-63
2023/01/25 03:17:02;;;;;;;8.35;2.60;;;;;;;;;;4849846;29;20065;-64
2023/01/25 03:19:35;;;;;;;8.25;3.08;;;;;;;;;;4872584;29;20990;-63
2023/01/25 03:22:08;;;;;;;6.90;2.53;;;;;;;;;;4848881;29;20105;-64
2023/01/25 03:24:41;;;;;;;7.35;2.75;;;;;;;;;;4811071;29;20412;-63
2023/01/25 03:27:17;;;;;;;5.00;2.47;;;;;;;;;;4852704;29;20052;-64
2023/01/25 03:29:56;;;;;;;4.40;1.97;;;;;;;;;;4764820;29;2602225;-64
2023/01/25 03:32:31;;;;;;;6.43;2.30;;;;;;;;;;4849140;29;20062;-63
2023/01/25 03:35:10;;;;;;;6.47;2.60;;;;;;;;;;4821712;29;20559;-64
2023/01/25 03:37:42;;;;;;;7.78;2.65;;;;;;;;;;4867460;29;20064;-65
2023/01/25 03:40:15;;;;;;;8.27;2.63;;;;;;;;;;4917461;29;20056;-63
2023/01/25 03:42:52;;;;;;;4.78;2.47;;;;;;;;;;4926042;29;20413;-63
2023/01/25 03:45:24;;;;;;;6.10;2.67;;;;;;;;;;4884685;29;20053;-63
2023/01/25 03:47:57;;;;;;;10.05;2.55;;;;;;;;;;4912800;29;20072;-63
2023/01/25 03:50:30;;;;;;;5.53;2.47;;;;;;;;;;4898646;29;20052;-62
2023/01/25 03:53:16;;;;;;;6.85;2.40;;;;;;;;;;4924754;29;20057;-63
2023/01/25 03:55:47;;;;;;;11.30;1.95;;;;;;;;;;4850732;29;20133;-63
2023/01/25 03:58:20;;;;;;;7.07;2.20;;;;;;;;;;4878178;29;20059;-63
2023/01/25 04:00:56;;;;;;;7.38;2.70;;;;;;;;;;4868493;29;20054;-63
2023/01/25 04:03:28;;;;;;;5.47;2.60;;;;;;;;;;4874370;29;20053;-63
2023/01/25 04:06:01;;;;;;;7.05;2.75;;;;;;;;;;4893884;29;20052;-63
2023/01/25 04:08:34;;;;;;;6.90;2.33;;;;;;;;;;4915445;29;20543;-63
2023/01/25 04:11:09;;;;;;;11.27;2.90;;;;;;;;;;4905174;29;20083;-65
2023/01/25 04:13:41;;;;;;;7.35;2.05;;;;;;;;;;4931454;29;20121;-63
2023/01/25 04:16:15;;;;;;;5.88;2.42;;;;;;;;;;4910403;29;20056;-63
2023/01/25 04:19:08;;;;;;;7.00;2.50;;;;;;;;;;4904263;29;20053;-63
2023/01/25 04:21:40;;;;;;;8.18;2.80;;;;;;;;;;4874656;29;20064;-63
2023/01/25 04:24:12;;;;;;;9.40;3.13;;;;;;;;;;4839457;29;20400;-63
2023/01/25 04:26:43;;;;;;;;;;;;;;;;;;4875213;29;20073;-64
2023/01/25 04:29:14;;;;;;;6.43;2.40;;;;;;;;;;4844483;29;19924;-63
2023/01/25 04:31:45;;;;;;;5.10;2.13;;;;;;;;;;4862334;29;20084;-63
2023/01/25 04:34:16;;;;;;;5.93;2.17;;;;;;;;;;4870928;29;20068;-63
2023/01/25 04:36:47;;;;;;;5.28;2.20;;;;;;;;;;4865684;29;20069;-62
2023/01/25 04:39:19;;;;;;;6.07;2.05;;;;;;;;;;4818225;29;20059;-65
2023/01/25 04:41:50;;;;;;;4.75;2.15;;;;;;;;;;4867243;29;20061;-63
2023/01/25 04:44:21;;;;;;;4.72;2.35;;;;;;;;;;4822132;29;20054;-64
2023/01/25 04:46:52;;;;;;;4.43;2.20;;;;;;;;;;4878201;29;20058;-63
2023/01/25 04:49:23;;;;;;;7.75;2.55;;;;;;;;;;4834025;29;20054;-64
2023/01/25 04:51:54;;;;;;;6.30;2.47;;;;;;;;;;4863721;29;20064;-63
2023/01/25 04:54:24;;;;;;;6.68;2.70;;;;;;;;;;4873657;29;20531;-63
2023/01/25 04:56:55;;;;;;;9.60;3.50;;;;;;;;;;4855725;29;20056;-64
2023/01/25 04:59:27;;;;;;;9.48;2.42;;;;;;;;;;4845841;29;20045;-63
2023/01/25 05:01:57;;;;;;;9.13;3.35;;;;;;;;;;4837203;29;20396;-65
2023/01/25 05:04:28;;;;;;;5.53;2.17;;;;;;;;;;4831136;29;20064;-66
2023/01/25 05:06:59;;;;;;;7.05;2.50;;;;;;;;;;4893405;29;20445;-64
2023/01/25 05:09:29;;;;;;;7.05;2.78;;;;;;;;;;4892853;29;20429;-64
2023/01/25 05:12:00;;;;;;;11.57;3.00;;;;;;;;;;4892584;29;20052;-63
2023/01/25 05:14:39;;;;;;;12.57;3.30;;;;;;;;;;4892545;29;20561;-63
2023/01/25 05:17:10;;;;;;;7.80;2.67;;;;;;;;;;4901107;29;20057;-63
2023/01/25 05:19:42;;;;;;;7.57;3.45;;;;;;;;;;4921875;29;20410;-64
2023/01/25 05:22:19;;;;;;;6.22;2.83;;;;;;;;;;4899369;29;20052;-63
2023/01/25 05:24:53;;;;;;;7.32;3.03;;;;;;;;;;4902683;29;20166;-63
2023/01/25 05:27:24;;;;;;;;;;;;;;;;;;4893050;29;20520;-65
2023/01/25 05:29:56;;;;;;;6.13;2.85;;;;;;;;;;4849843;29;19923;-63
2023/01/25 05:32:38;;;;;;;11.40;3.10;;;;;;;;;;4847786;29;20054;-63
2023/01/25 05:35:08;;;;;;;11.10;3.35;;;;;;;;;;4811087;29;20058;-64
2023/01/25 05:37:40;;;;;;;7.85;3.13;;;;;;;;;;4793077;29;20484;-63
2023/01/25 05:40:16;;;;;;;6.85;2.83;;;;;;;;;;4856569;29;20057;-63
2023/01/25 05:42:54;;;;;;;6.28;2.70;;;;;;;;;;4886878;29;20057;-63
2023/01/25 05:45:26;;;;;;;8.20;2.83;;;;;;;;;;4877514;29;20084;-64
2023/01/25 05:47:58;;;;;;;6.50;3.15;;;;;;;;;;4929801;29;20047;-63
2023/01/25 05:50:30;;;;;;;10.45;3.10;;;;;;;;;;4929974;29;20071;-63
2023/01/25 05:53:05;;;;;;;10.52;2.60;;;;;;;;;;4862243;29;20103;-64
2023/01/25 05:55:36;;;;;;;7.43;2.90;;;;;;;;;;4811377;29;20058;-64
2023/01/25 05:58:10;;;;;;;7.20;2.55;;;;;;;;;;4839944;29;20049;-63
2023/01/25 06:00:42;;;;;;;7.95;2.90;;;;;;;;;;4854812;29;20053;-62
2023/01/25 06:03:21;;;;;;;9.63;2.47;;;;;;;;;;4855051;29;20441;-63
2023/01/25 06:05:56;;;;;;;5.85;2.60;;;;;;;;;;4857480;29;20049;-63
2023/01/25 06:08:27;;;;;;;11.00;2.55;;;;;;;;;;4892228;29;20184;-63
2023/01/25 06:10:57;;;;;;;9.48;2.92;;;;;;;;;;4878237;29;20212;-62
2023/01/25 06:13:28;;;;;;;5.22;2.60;;;;;;;;;;4875030;29;20065;-63
2023/01/25 06:15:59;;;;;;;7.05;3.13;;;;;;;;;;4858167;29;20094;-63
2023/01/25 06:18:38;;;;;;;8.80;2.92;;;;;;;;;;4859642;29;20526;-63
2023/01/25 06:21:29;;;;;;;6.75;3.15;;;;;;;;;;4821949;29;20420;-63
2023/01/25 06:23:59;;;;;;;7.72;2.58;;;;;;;;;;4836566;29;20062;-63
2023/01/25 06:26:30;;;;;;;9.18;3.10;;;;;;;;;;4894973;29;20057;-63
2023/01/25 06:29:00;;;;;;;7.03;2.80;;;;;;;;;;4891573;29;20057;-62
2023/01/25 06:31:30;;;;;;;9.90;2.78;;;;;;;;;;4894606;29;20067;-63
2023/01/25 06:34:05;;;;;;;7.57;2.80;;;;;;;;;;4902345;29;20056;-66
2023/01/25 06:36:35;;;;;;;8.35;3.30;;;;;;;;;;4895716;29;20231;-65
2023/01/25 06:39:06;;;;;;;5.82;2.67;;;;;;;;;;4914474;29;20067;-63
2023/01/25 06:41:37;;;;;;;9.75;3.10;;;;;;;;;;4928303;29;20071;-65
2023/01/25 06:44:08;;;;;;;11.90;2.72;;;;;;;;;;4933653;29;20063;-63
2023/01/25 06:46:38;;;;;;;8.70;2.75;;;;;;;;;;4933085;29;20054;-63
2023/01/25 06:49:10;;;;;;;6.50;2.85;;;;;;;;;;4919623;29;20056;-63
2023/01/25 06:51:41;;;;;;;5.80;2.40;;;;;;;;;;4914247;29;20056;-64
2023/01/25 06:54:12;;;;;;;6.97;2.95;;;;;;;;;;4914122;29;20130;-63
2023/01/25 06:56:42;;;;;;;9.57;2.67;;;;;;;;;;4959862;28;20084;-64
2023/01/25 06:59:14;;;;;;;8.18;2.45;;;;;;;;;;4991291;28;20507;-66
2023/01/25 07:01:45;;;;;;;7.53;2.60;;;;;;;;;;4991351;28;20083;-62
2023/01/25 07:04:16;;;;;;;8.18;2.50;;;;;;;;;;4980676;28;20063;-63
2023/01/25 07:06:46;;;;;;;7.82;2.72;;;;;;;;;;4971868;28;20051;-66
2023/01/25 07:09:22;;;;;;;9.82;2.33;;;;;;;;;;4971372;28;20062;-64
2023/01/25 07:11:53;;;;;;;6.18;2.53;;;;;;;;;;4955770;28;20062;-64
2023/01/25 07:14:23;;;;;;;6.97;3.00;;;;;;;;;;4945043;28;20062;-62
2023/01/25 07:16:53;;;;;;;4.97;3.10;;;;;;;;;;5035143;28;20065;-63
2023/01/25 07:19:24;;;;;;;5.68;2.58;;;;;;;;;;5000799;28;20052;-63
2023/01/25 07:21:54;;;;;;;7.57;2.47;;;;;;;;;;5050426;28;20510;-64
2023/01/25 07:24:25;;;;;;;6.18;2.45;;;;;;;;;;5034022;28;20544;-63
2023/01/25 07:26:56;;;;;;;7.28;3.17;;;;;;;;;;5033610;28;20987;-63
2023/01/25 07:29:28;;;;;;;6.75;2.22;;;;;;;;;;5037631;28;20067;-64
2023/01/25 07:31:58;;;;;;;6.88;2.03;;;;;;;;;;5053848;28;20067;-63
2023/01/25 07:34:28;;;;;;;4.75;1.95;;;;;;;;;;5071222;28;20079;-64
2023/01/25 07:36:58;;;;;;;8.52;2.55;;;;;;;;;;5072362;28;20059;-65
2023/01/25 07:39:28;;;;;;;9.25;2.30;;;;;;;;;;5053717;28;20053;-63
2023/01/25 07:41:59;;;;;;;8.65;2.55;;;;;;;;;;5072241;28;20477;-63
2023/01/25 07:44:32;;;;;;;8.75;2.17;;;;;;;;;;5029423;28;20049;-63
2023/01/25 07:47:11;;;;;;;5.32;2.20;;;;;;;;;;5014513;28;20521;-63
2023/01/25 07:49:42;;;;;;;4.88;2.10;;;;;;;;;;5029751;28;20053;-62
2023/01/25 07:52:12;;;;;;;9.73;2.10;;;;;;;;;;5029702;28;20084;-63
2023/01/25 07:54:44;;;;;;;5.57;2.13;;;;;;;;;;4964221;28;20057;-62
2023/01/25 07:57:17;;;;;;;5.10;2.25;;;;;;;;;;5029361;28;20057;-63
2023/01/25 07:59:48;;;;;;;5.82;2.10;;;;;;;;;;5013100;28;20061;-64
2023/01/25 08:02:19;;;;;;;8.98;2.72;;;;;;;;;;5029165;28;20065;-63
2023/01/25 08:04:50;;;;;;;5.50;2.60;;;;;;;;;;4995979;28;20064;-63
2023/01/25 08:07:22;;;;;;;9.85;2.67;;;;;;;;;;5029309;28;20076;-67
2023/01/25 08:09:53;;;;;;;8.35;2.60;;;;;;;;;;5029337;28;20050;-64
2023/01/25 08:12:26;;;;;;;5.07;2.20;;;;;;;;;;4996281;28;20516;-63
2023/01/25 08:14:57;;;;;;;6.28;2.58;;;;;;;;;;5028820;28;20140;-63
2023/01/25 08:17:30;;;;;;;8.40;2.50;;;;;;;;;;4976325;28;20057;-63
2023/01/25 08:20:01;;;;;;;6.38;2.30;;;;;;;;;;5009353;28;20406;-63
2023/01/25 08:22:33;;;;;;;5.70;2.53;;;;;;;;;;5002953;28;20053;-62
2023/01/25 08:25:04;;;;;;;8.75;2.30;;;;;;;;;;5048646;28;20060;-63
2023/01/25 08:27:35;;;;;;;5.32;2.17;;;;;;;;;;5048965;28;20520;-64
2023/01/25 08:30:07;;;;;;;8.52;2.22;;;;;;;;;;5048502;28;20049;-62
2023/01/25 08:32:38;;;;;;;4.88;1.85;;;;;;;;;;5031789;28;20406;-64
2023/01/25 08:35:09;;;;;;;6.15;2.15;;;;;;;;;;5028489;28;20045;-63
2023/01/25 08:37:40;;;;;;;4.95;1.65;;;;;;;;;;5028862;28;20062;-62
2023/01/25 08:40:13;;;;;;;5.80;2.03;;;;;;;;;;5012166;28;20074;-63
2023/01/25 08:42:44;;;;;;;5.45;2.10;;;;;;;;;;4980079;28;20436;-63
2023/01/25 08:45:15;;;;;;;6.60;2.00;;;;;;;;;;4994876;28;20573;-63
2023/01/25 08:47:45;;;;;;;4.53;1.98;;;;;;;;;;4969442;28;20050;-63
2023/01/25 08:50:16;;;;;;;6.47;2.28;;;;;;;;;;4969394;28;20063;-63
2023/01/25 08:52:47;;;;;;;4.82;2.05;;;;;;;;;;4938102;28;20423;-62
2023/01/25 08:55:17;;;;;;;5.97;2.53;;;;;;;;;;4980737;28;20198;-62
2023/01/25 08:57:48;;;;;;;5.20;2.40;;;;;;;;;;4989116;28;20077;-63
2023/01/25 09:00:19;;;;;;;5.38;2.17;;;;;;;;;;4988883;28;20061;-63
2023/01/25 09:02:49;;;;;;;5.10;2.15;;;;;;;;;;4989053;28;20051;-64
2023/01/25 09:05:20;;;;;;;7.57;2.35;;;;;;;;;;4956685;28;20061;-63
2023/01/25 09:07:51;;;;;;;7.00;2.28;;;;;;;;;;4988836;28;20503;-62
2023/01/25 09:10:21;;;;;;;6.15;2.60;;;;;;;;;;4989118;28;20158;-63
2023/01/25 09:12:52;;;;;;;7.32;2.67;;;;;;;;;;4976929;28;20382;-62
2023/01/25 09:15:23;;;;;;;6.32;2.30;;;;;;;;;;5028227;28;20072;-62
2023/01/25 09:17:55;;;;;;;3.90;2.08;;;;;;;;;;4979036;28;20053;-64
2023/01/25 09:20:25;;;;;;;;;;;;;;;;;;4995440;28;20532;-62
2023/01/25 09:23:00;;;;;;;4.25;2.15;;;;;;;;;;4995348;28;19920;-63
2023/01/25 09:25:31;;;;;;;10.02;2.58;;;;;;;;;;5017019;28;20071;-63
2023/01/25 09:28:09;;;;;;;9.95;2.78;;;;;;;;;;5018461;28;20680;-62
2023/01/25 09:30:41;;;;;;;6.25;2.55;;;;;;;;;;5070119;28;20052;-62
2023/01/25 09:33:35;;;;;;;5.25;2.92;;;;;;;;;;5067623;28;20048;-62
2023/01/25 09:36:06;;;;;;;8.30;2.80;;;;;;;;;;5018193;28;20056;-64
2023/01/25 09:38:37;;;;;;;7.40;2.80;;;;;;;;;;5067739;28;20057;-65
2023/01/25 09:41:25;;;;;;;11.05;2.65;;;;;;;;;;4986357;28;20551;-62
2023/01/25 09:44:14;;;;;;;14.30;2.63;;;;;;;;;;5067713;28;20048;-62
2023/01/25 09:47:01;;;;;;;7.13;2.75;;;;;;;;;;5067710;28;20576;-63
2023/01/25 09:49:50;;;;;;;8.18;2.15;;;;;;;;;;5067909;28;20400;-63
2023/01/25 09:52:38;;;;;;;8.68;2.28;;;;;;;;;;5017741;28;20056;-64
2023/01/25 09:55:16;;;;;;;5.40;2.08;;;;;;;;;;5017788;28;20079;-63
2023/01/25 09:57:47;;;;;;;5.65;2.22;;;;;;;;;;5052009;28;20053;-64
2023/01/25 10:00:26;;;;;;;10.85;2.20;;;;;;;;;;5071387;28;20059;-64
2023/01/25 10:03:25;;;;;;;10.23;2.15;;;;;;;;;;5021938;28;20044;-62
2023/01/25 10:05:59;;;;;;;7.25;2.03;;;;;;;;;;5011588;28;20057;-63
2023/01/25 10:08:54;;;;;;;4.88;2.05;;;;;;;;;;4963236;28;20058;-63
2023/01/25 10:11:32;;;;;;;8.88;2.40;;;;;;;;;;5023850;28;20069;-62
2023/01/25 10:14:21;;;;;;;4.57;2.10;;;;;;;;;;4998868;28;20096;-63
2023/01/25 10:17:31;;;;;;;6.28;2.45;;;;;;;;;;4998400;28;20053;-62
2023/01/25 10:20:03;;;;;;;10.65;2.50;;;;;;;;;;4940079;28;20061;-64
2023/01/25 10:22:43;;;;;;;5.22;2.08;;;;;;;;;;4972255;28;20059;-63
2023/01/25 10:25:27;;;;;;;7.13;2.45;;;;;;;;;;4956361;28;20054;-63
2023/01/25 10:28:25;;;;;;;5.47;2.10;;;;;;;;;;4908328;28;20058;-63
2023/01/25 10:31:00;;;;;;;8.27;2.08;;;;;;;;;;4971826;28;20057;-63
2023/01/25 10:33:36;;;;;;;9.35;1.90;;;;;;;;;;4933715;29;20059;-63
2023/01/25 10:36:14;;;;;;;9.80;2.00;;;;;;;;;;4933825;29;20059;-65
2023/01/25 10:38:48;;;;;;;5.40;2.03;;;;;;;;;;4949437;29;20058;-63
2023/01/25 10:41:41;;;;;;;7.53;2.50;;;;;;;;;;4918117;29;20060;-63
2023/01/25 10:44:21;;;;;;;7.50;2.60;;;;;;;;;;4970096;28;20062;-64
2023/01/25 10:47:06;;;;;;;5.93;1.95;;;;;;;;;;4955795;28;20061;-64
2023/01/25 10:49:53;;;;;;;9.07;2.15;;;;;;;;;;4932997;29;20074;-63
2023/01/25 10:52:25;;;;;;;9.85;2.28;;;;;;;;;;4948877;29;20051;-64
2023/01/25 10:55:13;;;;;;;5.68;1.85;;;;;;;;;;4933430;29;20531;-64
2023/01/25 10:57:58;;;;;;;8.80;2.20;;;;;;;;;;4972070;28;20054;-64
2023/01/25 11:00:38;;;;;;;5.15;2.55;;;;;;;;;;4943114;28;20103;-64
2023/01/25 11:03:36;;;;;;;9.18;2.05;;;;;;;;;;4990894;28;20069;-66
2023/01/25 11:06:08;;;;;;;5.40;1.73;;;;;;;;;;4973965;28;20620;-64
2023/01/25 11:08:41;;;;;;;6.22;1.83;;;;;;;;;;4991137;28;20462;-64
2023/01/25 11:11:31;;;;;;;3.40;1.83;;;;;;;;;;5021203;28;20714;-65
2023/01/25 11:14:32;;;;;;;3.13;1.50;;;;;;;;;;5017846;28;20548;-63
2023/01/25 11:17:04;;;;;;;;;;;;;;;;;;4982817;28;20064;-63
2023/01/25 11:19:36;;;;;;;3.95;1.45;;;;;;;;;;5030376;28;20353;-63
2023/01/25 11:22:20;;;;;;;;;;;;;;;;;;4997719;28;20054;-65
2023/01/25 11:24:51;;;;;;;5.25;1.63;;;;;;;;;;5030153;28;19928;-65
2023/01/25 11:27:22;;;;;;;3.28;1.55;;;;;;;;;;5024438;28;20426;-64
2023/01/25 11:30:05;;;;;;;4.72;1.77;;;;;;;;;;5049951;28;20861;-63
2023/01/25 11:32:40;;;;;;;3.67;1.98;;;;;;;;;;5049937;28;20044;-64
2023/01/25 11:35:24;;;;;;;3.20;1.63;;;;;;;;;;5049878;28;20060;-64
2023/01/25 11:37:57;;;;;;;6.57;2.42;;;;;;;;;;5000470;28;20057;-64
2023/01/25 11:40:39;;;;;;;4.47;2.03;;;;;;;;;;5032781;28;20061;-64
2023/01/25 11:43:39;;;;;;;6.40;2.10;;;;;;;;;;5029263;28;20513;-63
2023/01/25 11:46:19;;;;;;;5.25;2.00;;;;;;;;;;5025884;28;20513;-63
2023/01/25 11:49:10;;;;;;;3.70;1.95;;;;;;;;;;5009704;28;20058;-64
2023/01/25 11:51:43;;;;;;;3.65;2.28;;;;;;;;;;5009634;28;20097;-64
2023/01/25 11:54:29;;;;;;;5.63;2.30;;;;;;;;;;4993757;28;20061;-64
2023/01/25 11:57:02;;;;;;;5.15;1.80;;;;;;;;;;4977045;28;20066;-64
2023/01/25 11:59:59;;;;;;;2.25;1.50;;;;;;;;;;4977202;28;20062;-65
2023/01/25 12:02:51;;;;;;;4.47;1.92;;;;;;;;;;5009879;28;20049;-65
2023/01/25 12:05:28;;;;;;;6.45;2.08;;;;;;;;;;4961155;28;20065;-64
2023/01/25 12:08:12;;;;;;;2.67;1.52;;;;;;;;;;4976787;28;20060;-64
2023/01/25 12:11:06;;;;;;;4.75;1.77;;;;;;;;;;5009691;28;20556;-64
2023/01/25 12:13:56;;;;;;;3.85;1.45;;;;;;;;;;4976870;28;20053;-64
2023/01/25 12:16:57;;;;;;;25.63;15.25;;;;;;;;;;5009456;28;20054;-65
2023/01/25 12:19:48;;;;;;;5.68;2.25;;;;;;;;;;4989417;28;20061;-65
2023/01/25 12:22:50;;;;;;;4.88;2.00;;;;;;;;;;5010365;28;20042;-65
2023/01/25 12:25:53;;;;;;;4.60;1.98;;;;;;;;;;4938766;28;20069;-64
2023/01/25 12:28:28;;;;;;;3.22;1.67;;;;;;;;;;4950997;29;20066;-64
2023/01/25 12:31:19;;;;;;;6.88;1.40;;;;;;;;;;4950524;28;20496;-64
2023/01/25 12:33:58;;;;;;;3.22;1.20;;;;;;;;;;4950818;29;20063;-64
2023/01/25 12:36:36;;;;;;;4.00;1.40;;;;;;;;;;4950733;29;20058;-64
2023/01/25 12:39:34;;;;;;;3.60;1.42;;;;;;;;;;4918838;29;20131;-64
2023/01/25 12:42:21;;;;;;;4.07;1.38;;;;;;;;;;4918616;29;20520;-65
2023/01/25 12:45:02;;;;;;;1.85;1.20;;;;;;;;;;4950475;29;20088;-64
2023/01/25 12:47:54;;;;;;;4.00;1.00;;;;;;;;;;4918532;29;20047;-64
2023/01/25 12:50:46;;;;;;;3.35;1.10;;;;;;;;;;4920121;29;20551;-64
2023/01/25 12:53:41;;;;;;;2.25;1.05;;;;;;;;;;4950291;29;20066;-64
2023/01/25 12:56:28;;;;;;;4.75;1.23;;;;;;;;;;4952496;28;20835;-64
2023/01/25 12:59:37;;;;;;;3.47;1.00;;;;;;;;;;4969499;28;20507;-65
2023/01/25 13:02:18;;;;;;;3.20;1.40;;;;;;;;;;4970880;28;20054;-64
2023/01/25 13:05:12;;;;;;;2.10;1.40;;;;;;;;;;5005463;28;20068;-64
2023/01/25 13:07:53;;;;;;;2.30;1.30;;;;;;;;;;5047803;28;20056;-65
2023/01/25 13:10:34;;;;;;;4.88;1.20;;;;;;;;;;5031199;28;20053;-65
2023/01/25 13:13:20;;;;;;;3.55;1.05;;;;;;;;;;5047963;28;20052;-65
2023/01/25 13:15:53;;;;;;;6.30;1.33;;;;;;;;;;5015432;28;20053;-65
2023/01/25 13:18:29;;;;;;;4.03;1.00;;;;;;;;;;4998628;28;20056;-65
2023/01/25 13:21:04;;;;;;;2.28;0.90;;;;;;;;;;5047603;28;20053;-65
2023/01/25 13:23:42;;;;;;;1.80;1.10;;;;;;;;;;5000247;28;20060;-65
2023/01/25 13:26:27;;;;;;;3.15;1.05;;;;;;;;;;5011154;28;20061;-65
2023/01/25 13:28:59;;;;;;;3.47;1.15;;;;;;;;;;4978529;28;20133;-64
2023/01/25 13:31:39;;;;;;;1.88;0.82;;;;;;;;;;4933159;28;20057;-65
2023/01/25 13:34:39;;;;;;;1.42;0.80;;;;;;;;;;5015256;28;20064;-65
2023/01/25 13:37:19;;;;;;;3.63;1.00;;;;;;;;;;4982841;28;20057;-66
2023/01/25 13:39:51;;;;;;;1.77;0.70;;;;;;;;;;5046285;28;20063;-65
2023/01/25 13:42:31;;;;;;;1.42;0.82;;;;;;;;;;5051926;28;20517;-65
2023/01/25 13:45:17;;;;;;;1.13;0.70;;;;;;;;;;5034982;28;20049;-65
2023/01/25 13:48:03;;;;;;;3.60;1.00;;;;;;;;;;5051717;28;20041;-65
2023/01/25 13:50:54;;;;;;;1.38;1.00;;;;;;;;;;5051564;28;20041;-65
2023/01/25 13:53:34;;;;;;;3.80;0.95;;;;;;;;;;4998590;28;20084;-65
2023/01/25 13:56:04;;;;;;;5.53;1.40;;;;;;;;;;4998928;28;20406;-65
2023/01/25 13:58:44;;;;;;;3.80;0.95;;;;;;;;;;5015361;28;20598;-65
2023/01/25 14:01:22;;;;;;;1.73;0.90;;;;;;;;;;4998586;28;20049;-66
2023/01/25 14:04:00;;;;;;;1.60;0.90;;;;;;;;;;4946735;28;20054;-64
2023/01/25 14:06:38;;;;;;;3.60;1.58;;;;;;;;;;4953117;28;20405;-65
2023/01/25 14:09:21;;;;;;;2.53;1.00;;;;;;;;;;4953202;28;20052;-65
2023/01/25 14:11:53;;;;;;;1.25;0.70;;;;;;;;;;4960644;28;20066;-66
2023/01/25 14:14:31;;;;;;;1.73;0.80;;;;;;;;;;4968985;28;20091;-65
2023/01/25 14:17:21;;;;;;;1.30;0.85;;;;;;;;;;4959685;28;20146;-65
2023/01/25 14:19:55;;;;;;;2.92;1.40;;;;;;;;;;4945022;28;20046;-65
2023/01/25 14:22:34;;;;;;;2.97;1.00;;;;;;;;;;4953209;28;20063;-65
2023/01/25 14:25:12;;;;;;;;;;;;;;;;;;4980054;28;20388;-65
2023/01/25 14:27:52;;;;;;;2.78;0.88;;;;;;;;;;4957378;28;19922;-64
2023/01/25 14:30:29;;;;;;;2.53;0.80;;;;;;;;;;4995082;28;20057;-65
2023/01/25 14:33:22;;;;;;;3.15;1.30;;;;;;;;;;4982136;28;20080;-65
2023/01/25 14:36:02;;;;;;;1.40;0.77;;;;;;;;;;4971984;28;20054;-65
2023/01/25 14:38:51;;;;;;;4.75;1.10;;;;;;;;;;4947105;28;20054;-65
2023/01/25 14:41:28;;;;;;;4.07;1.10;;;;;;;;;;4966730;28;20066;-64
2023/01/25 14:44:21;;;;;;;1.80;0.80;;;;;;;;;;4942543;28;20517;-64
2023/01/25 14:47:32;;;;;;;1.00;0.70;;;;;;;;;;4971602;28;20059;-65
2023/01/25 14:50:31;;;;;;;1.95;0.82;;;;;;;;;;4971611;28;20114;-63
2023/01/25 14:53:28;;;;;;;0.98;0.60;;;;;;;;;;4970931;28;20546;-63
2023/01/25 14:56:02;;;;;;;1.23;0.63;;;;;;;;;;4971387;28;20047;-62
2023/01/25 14:58:34;;;;;;;2.45;0.80;;;;;;;;;;4939486;28;20066;-63
2023/01/25 15:01:12;;;;;;;2.00;1.05;;;;;;;;;;4986871;28;20058;-65
2023/01/25 15:03:47;;;;;;;2.53;0.90;;;;;;;;;;4971002;28;20522;-65
2023/01/25 15:06:20;;;;;;;3.58;0.80;;;;;;;;;;4962924;28;21238;-64
2023/01/25 15:09:36;;;;;;;3.40;0.98;;;;;;;;;;4951976;28;20059;-65
2023/01/25 15:12:31;;;;;;;3.28;1.23;;;;;;;;;;4943548;28;20058;-68
2023/01/25 15:15:19;;;;;;;2.58;1.23;;;;;;;;;;4914116;29;20548;-65
2023/01/25 15:17:51;;;;;;;1.20;0.95;;;;;;;;;;4953534;28;20064;-65
2023/01/25 15:20:31;;;;;;;3.80;1.20;;;;;;;;;;4942061;28;20584;-67
2023/01/25 15:23:21;;;;;;;1.83;0.63;;;;;;;;;;4965310;28;20062;-67
2023/01/25 15:25:57;;;;;;;2.20;0.93;;;;;;;;;;4986815;28;20062;-66
2023/01/25 15:28:35;;;;;;;1.23;0.80;;;;;;;;;;4953867;28;20062;-66
2023/01/25 15:31:36;;;;;;;1.80;0.77;;;;;;;;;;4959793;28;20078;-65
2023/01/25 15:34:19;;;;;;;2.97;1.40;;;;;;;;;;4982877;28;20094;-65
2023/01/25 15:36:51;;;;;;;2.35;0.93;;;;;;;;;;4953988;28;20054;-66
2023/01/25 15:39:26;;;;;;;1.63;0.70;;;;;;;;;;4970649;28;20162;-64
2023/01/25 15:41:58;;;;;;;1.45;0.93;;;;;;;;;;4938445;28;20059;-65
2023/01/25 15:44:31;;;;;;;1.65;0.80;;;;;;;;;;4970599;28;21133;-66
2023/01/25 15:47:05;;;;;;;1.52;0.88;;;;;;;;;;4970777;28;20070;-66
2023/01/25 15:50:01;;;;;;;1.90;0.80;;;;;;;;;;4979720;28;20051;-65
2023/01/25 15:52:39;;;;;;;1.33;1.23;;;;;;;;;;4985822;28;20383;-66
2023/01/25 15:55:14;;;;;;;1.20;0.73;;;;;;;;;;4954189;28;20066;-65